• Join FlightAware (Why Join?)
  • Login
  • US Flag 
02:02AM EDT


 

Airport Tracker/Info


-or-


 

Live Flight TrackerFlight Track Log ✈ RPA3869 ✈ 12-May-2013 ✈ KEWR - KALB

Flight Track Log - Related Links

Times and Time Zones

All times are in EDT time to prevent confusion due to time zone crossing. See the RPA3869 flight status page for this flight to view local times or setup timezone preferences in your user account.

Time Position Orientation Groundspeed Altitude Reporting Facility
EDT Latitude Longitude Course Direction KTS MPH feet Rate Location/Type
05:07PM 40.6500 -74.1667 37° Northeast 203 234 1,900  Level New York TRACON
05:08PM 40.6333 -74.2333 252° West 192 221 4,600 2,040 Climbing New York TRACON
05:09PM 40.7000 -74.2333 360° North 252 290 6,000 660 Climbing New York TRACON
05:10PM 41.1016 -74.1333 North  Level FlightAware Approximate
05:10PM 40.7667 -74.2167 11° North 244 281 6,000  Level New York TRACON
05:11PM 41.1661 -74.0609 74° East  Level FlightAware Approximate
05:11PM 40.8333 -74.2000 11° North 243 280 6,000  Level New York TRACON
05:12PM 41.1988 -73.9346 37° Northeast  Level FlightAware Approximate
05:12PM 40.9000 -74.1833 11° North 244 281 6,000  Level New York TRACON
05:13PM 40.9500 -74.1833 360° North 242 278 6,000  Level New York TRACON
05:14PM 41.0333 -74.1667 North 239 275 6,000  Level New York TRACON
05:15PM 41.1000 -74.1500 11° North 249 287 6,000 540 Level New York TRACON
05:16PM 41.1667 -74.1167 21° North 273 314 7,100 1,440 Climbing New York TRACON
05:17PM 41.1833 -74.0333 75° East 292 336 8,800 1,860 Climbing New York TRACON
05:18PM 41.2167 -73.9167 69° East 295 339 10,900 1,080 Climbing New York TRACON
05:20PM 41.2728 -73.6306 75° East 356 410 12,700 600 Climbing Boston Center
05:21PM 41.3367 -73.5072 55° Northeast 361 415 13,000 120 Climbing Boston Center
05:22PM 41.4042 -73.4225 43° Northeast 374 430 13,000  Level Boston Center
05:23PM 41.5106 -73.4075 North 320 368 13,000  Level Boston Center
05:24PM 41.5978 -73.4283 350° North 338 389 13,000  Level Boston Center
05:25PM 41.7061 -73.4494 352° North 353 406 13,000  Level Boston Center
05:26PM 41.7956 -73.4647 353° North 353 406 13,000  Level Boston Center
05:27PM 41.9036 -73.4889 351° North 353 406 13,000  Level Boston Center
05:28PM 41.9911 -73.5044 352° North 353 406 13,000  Level Boston Center
05:29PM 42.0867 -73.5256 351° North 360 414 13,000  Level Boston Center
05:30PM 42.1492 -73.5239 North 370 426 13,000 -240 Level Boston Center
05:30PM 42.2014 -73.5164 North 353 406 12,800 -720 Descending Boston Center
05:31PM 42.2433 -73.5031 13° North 375 432 12,400 -1,020 Descending Boston Center
05:31PM 42.3017 -73.4928 North 358 412 11,800 -1,140 Descending Boston Center
05:32PM 42.3414 -73.4822 11° North 359 413 11,300 -1,140 Descending Boston Center
05:32PM 42.3875 -73.4717 10° North 352 405 10,700 -1,140 Descending Boston Center
05:33PM 42.4375 -73.4669 North 315 362 10,200 -1,440 Descending Boston Center
05:33PM 42.4792 -73.4619 North 309 356 9,300 -1,800 Descending Boston Center
05:34PM 42.5147 -73.4625 359° North 267 307 8,400 -1,920 Descending Boston Center
05:34PM 42.5481 -73.4631 359° North 273 314 7,400 -2,040 Descending Boston Center
05:35PM 42.5958 -73.4667 357° North 267 307 6,200 -2,100 Descending Boston Center
05:35PM 42.6250 -73.4756 347° North 259 298 5,300 -1,800 Descending Boston Center
05:36PM 42.6558 -73.5017 328° Northwest 225 259 4,400 -1,200 Descending Boston Center
05:36PM 42.6725 -73.5158 328° Northwest 228 262 4,100 -1,200 Descending Boston Center
05:37PM 42.7117 -73.5533 325° Northwest 208 239 3,100 -1,140 Descending Boston Center
05:37PM 42.7219 -73.5733 305° West 217 250 3,000 -960 Descending Boston Center
05:38PM 42.7506 -73.6275 306° West 184 212 2,000 -840 Descending Boston Center
05:39PM 42.7522 -73.6786 273° West 178 205 1,600 -540 Descending Boston Center